createdAt,value
2023-04-28T00:01:08.095Z,9.30
2023-04-28T00:06:11.541Z,8.40
2023-04-28T00:11:14.310Z,8.40
2023-04-28T00:16:17.175Z,8.20
2023-04-28T00:21:20.020Z,8.40
2023-04-28T00:26:22.954Z,7.20
2023-04-28T00:31:25.888Z,7.40
2023-04-28T00:36:32.383Z,6.80
2023-04-28T00:41:35.356Z,7.60
2023-04-28T00:46:38.210Z,6.90
2023-04-28T00:51:41.050Z,6.70
2023-04-28T00:56:44.830Z,7.30
2023-04-28T01:01:47.628Z,6.40
2023-04-28T01:06:52.708Z,6.40
2023-04-28T01:11:55.926Z,6.10
2023-04-28T01:16:59.143Z,7.20
2023-04-28T01:22:02.210Z,6.30
2023-04-28T01:27:05.124Z,7.00
2023-04-28T01:32:10.299Z,6.80
2023-04-28T01:37:13.244Z,6.60
2023-04-28T01:42:16.003Z,7.20
2023-04-28T01:47:18.772Z,6.60
2023-04-28T01:52:23.206Z,6.50
2023-04-28T01:57:26.530Z,7.70
2023-04-28T02:02:29.643Z,7.60
2023-04-28T02:07:32.681Z,7.50
2023-04-28T02:12:35.449Z,7.30
2023-04-28T02:17:38.295Z,6.70
2023-04-28T02:22:41.582Z,6.40
2023-04-28T02:27:45.265Z,6.10
2023-04-28T02:32:48.601Z,6.60
2023-04-28T02:37:52.524Z,6.80
2023-04-28T02:42:55.305Z,8.80
2023-04-28T02:47:58.602Z,6.90
2023-04-28T02:53:01.437Z,6.50
2023-04-28T02:58:04.532Z,6.60
2023-04-28T03:03:07.744Z,6.60
2023-04-28T03:08:11.017Z,6.10
2023-04-28T03:13:14.141Z,5.70
2023-04-28T03:18:18.028Z,6.20
2023-04-28T03:23:20.782Z,6.90
2023-04-28T03:28:23.548Z,6.40
2023-04-28T03:33:26.340Z,6.00
2023-04-28T03:38:29.196Z,5.50
2023-04-28T03:43:34.131Z,5.30
2023-04-28T03:48:36.959Z,5.30
2023-04-28T03:53:39.733Z,6.80
2023-04-28T03:58:44.877Z,6.10
2023-04-28T04:03:47.981Z,7.20
2023-04-28T04:08:51.188Z,6.10
2023-04-28T04:13:53.974Z,7.00
2023-04-28T04:19:01.773Z,6.80
2023-04-28T04:24:04.886Z,6.10
2023-04-28T04:29:07.700Z,5.10
2023-04-28T04:34:13.802Z,5.40
2023-04-28T04:39:16.976Z,5.60
2023-04-28T04:44:20.119Z,4.80
2023-04-28T04:49:22.970Z,6.70
2023-04-28T04:54:25.732Z,5.70
2023-04-28T04:59:28.532Z,5.60
2023-04-28T05:04:31.412Z,6.10
2023-04-28T05:09:34.345Z,4.80
2023-04-28T05:14:39.256Z,5.20
2023-04-28T05:19:41.989Z,5.30
2023-04-28T05:24:44.810Z,5.30
2023-04-28T05:29:47.710Z,5.20
2023-04-28T05:34:50.606Z,4.90
2023-04-28T05:39:53.623Z,5.60
2023-04-28T05:44:56.405Z,5.50
2023-04-28T05:50:02.644Z,5.20
2023-04-28T05:55:08.350Z,6.00
2023-04-28T06:00:16.090Z,4.90
2023-04-28T06:05:19.285Z,5.30
2023-04-28T06:10:23.791Z,4.90
2023-04-28T06:15:26.706Z,4.50
2023-04-28T06:20:29.770Z,4.90
2023-04-28T06:25:32.694Z,5.30
2023-04-28T06:30:35.617Z,4.90
2023-04-28T06:35:39.667Z,4.90
2023-04-28T06:40:42.518Z,4.70
2023-04-28T06:45:45.379Z,3.90
2023-04-28T06:50:48.228Z,3.60
2023-04-28T06:55:51.654Z,4.00
2023-04-28T07:00:54.517Z,3.10
2023-04-28T07:05:58.140Z,2.90
2023-04-28T07:11:04.886Z,2.70
2023-04-28T07:16:08.338Z,3.20
2023-04-28T07:21:14.657Z,2.80
2023-04-28T07:26:17.565Z,3.10
2023-04-28T07:31:24.025Z,3.50
2023-04-28T07:36:27.011Z,4.10
2023-04-28T07:41:30.019Z,2.60
2023-04-28T07:46:33.452Z,2.80
2023-04-28T07:51:36.527Z,3.30
2023-04-28T07:56:39.362Z,2.30
2023-04-28T08:01:43.163Z,3.00
2023-04-28T08:06:46.583Z,3.50
2023-04-28T08:11:49.452Z,3.00
2023-04-28T08:16:52.261Z,2.90
2023-04-28T08:21:55.051Z,2.90
2023-04-28T08:26:57.882Z,2.50
2023-04-28T08:32:04.872Z,2.40
2023-04-28T08:37:07.971Z,1.90
2023-04-28T08:42:15.208Z,2.10
2023-04-28T08:47:21.304Z,2.00
2023-04-28T08:52:27.260Z,1.80
2023-04-28T08:57:48.345Z,2.00
2023-04-28T09:02:51.280Z,1.90
2023-04-28T09:07:55.785Z,1.90
2023-04-28T09:12:58.909Z,1.90
2023-04-28T09:18:06.670Z,2.10
2023-04-28T09:23:17.566Z,2.20
2023-04-28T09:28:23.086Z,1.80
2023-04-28T09:33:26.137Z,2.00
2023-04-28T09:38:30.476Z,2.00
2023-04-28T09:43:35.907Z,2.30
2023-04-28T09:48:38.925Z,2.10
2023-04-28T09:53:43.115Z,2.00
2023-04-28T09:58:52.920Z,2.10
2023-04-28T10:03:58.207Z,2.00
2023-04-28T10:09:02.091Z,1.80
2023-04-28T10:14:06.034Z,1.80
2023-04-28T10:19:10.568Z,2.00
2023-04-28T10:24:22.637Z,2.20
2023-04-28T10:29:25.923Z,1.90
2023-04-28T10:34:30.212Z,1.90
2023-04-28T10:39:35.347Z,2.00
2023-04-28T10:44:44.550Z,1.70
2023-04-28T10:49:57.765Z,2.00
2023-04-28T10:55:40.334Z,3.00
2023-04-28T11:00:45.389Z,1.90
2023-04-28T11:06:29.337Z,1.70
2023-04-28T11:11:38.928Z,1.50
2023-04-28T11:16:57.559Z,2.00
2023-04-28T11:22:04.465Z,1.70
2023-04-28T11:27:07.408Z,2.10
2023-04-28T11:32:11.035Z,2.10
2023-04-28T11:37:18.312Z,2.10
2023-04-28T11:42:27.262Z,2.00
2023-04-28T11:47:32.737Z,2.20
2023-04-28T11:52:36.112Z,2.30
2023-04-28T11:57:39.981Z,2.20
2023-04-28T12:02:43.161Z,1.80
2023-04-28T12:07:47.065Z,2.10
2023-04-28T12:12:53.207Z,2.20
2023-04-28T12:23:03.110Z,2.80
2023-04-28T12:28:10.926Z,2.80
2023-04-28T12:33:25.628Z,2.50
2023-04-28T12:38:30.905Z,2.80
2023-04-28T12:43:34.747Z,3.00
2023-04-28T12:48:38.554Z,2.10
2023-04-28T12:53:41.303Z,1.80
2023-04-28T12:58:44.220Z,2.20
2023-04-28T13:03:48.659Z,1.90
2023-04-28T13:08:51.986Z,2.20
2023-04-28T13:13:56.732Z,1.90
2023-04-28T13:19:02.906Z,2.20
2023-04-28T13:24:06.036Z,2.00
2023-04-28T13:29:09.565Z,2.40
2023-04-28T13:34:19.053Z,2.30
2023-04-28T13:39:22.218Z,2.40
2023-04-28T13:44:24.989Z,3.20
2023-04-28T13:49:28.236Z,4.10
2023-04-28T13:54:31.438Z,2.90
2023-04-28T13:59:34.372Z,2.40
2023-04-28T14:04:37.737Z,2.50
2023-04-28T14:09:41.582Z,2.40
2023-04-28T14:14:49.166Z,2.60
2023-04-28T14:19:56.409Z,2.40
2023-04-28T14:24:59.306Z,2.80
2023-04-28T14:30:02.358Z,2.40
2023-04-28T14:35:06.390Z,2.50
2023-04-28T14:40:10.403Z,2.30
2023-04-28T14:45:14.016Z,2.00
2023-04-28T14:50:16.918Z,2.80
2023-04-28T14:55:21.032Z,2.80
2023-04-28T15:00:23.954Z,2.70
2023-04-28T15:05:27.299Z,2.60
2023-04-28T15:10:39.530Z,2.90
2023-04-28T15:15:42.742Z,3.50
2023-04-28T15:20:45.843Z,2.40
2023-04-28T15:25:53.257Z,2.90
2023-04-28T15:30:56.380Z,3.00
2023-04-28T15:35:59.201Z,2.90
2023-04-28T15:41:02.730Z,2.20
2023-04-28T15:46:09.433Z,3.40
2023-04-28T15:51:14.896Z,3.00
2023-04-28T15:56:19.700Z,2.70
2023-04-28T16:01:24.625Z,3.10
2023-04-28T16:06:27.801Z,2.80
2023-04-28T16:11:30.889Z,2.70
2023-04-28T16:16:34.495Z,2.80
2023-04-28T16:21:37.329Z,3.20
2023-04-28T16:26:40.588Z,3.00
2023-04-28T16:31:45.072Z,3.10
2023-04-28T16:36:48.170Z,6.60
2023-04-28T16:41:51.198Z,6.30
2023-04-28T16:46:54.278Z,8.60
2023-04-28T16:52:03.881Z,5.00
2023-04-28T16:57:08.113Z,5.50
2023-04-28T17:02:12.296Z,4.80
2023-04-28T17:07:17.586Z,4.80
2023-04-28T17:12:23.430Z,3.10
2023-04-28T17:17:26.528Z,9.10
2023-04-28T17:22:31.920Z,7.10
2023-04-28T17:27:35.476Z,4.30
2023-04-28T17:32:38.742Z,2.90
2023-04-28T17:37:42.103Z,3.60
2023-04-28T17:42:44.827Z,3.70
2023-04-28T17:47:53.179Z,4.50
2023-04-28T17:52:56.123Z,5.40
2023-04-28T17:58:01.621Z,5.30
2023-04-28T18:03:04.576Z,5.30
2023-04-28T18:08:09.445Z,5.40
2023-04-28T18:13:12.248Z,5.30
2023-04-28T18:18:17.349Z,6.20
2023-04-28T18:23:20.373Z,6.50
2023-04-28T18:28:24.830Z,6.80
2023-04-28T18:38:35.297Z,5.60
2023-04-28T18:43:38.110Z,5.90
2023-04-28T18:48:43.128Z,4.30
2023-04-28T18:53:47.479Z,3.20
2023-04-28T18:58:50.775Z,4.60
2023-04-28T19:03:53.696Z,4.30
2023-04-28T19:08:57.462Z,4.20
2023-04-28T19:14:00.219Z,5.10
2023-04-28T19:19:03.235Z,5.70
2023-04-28T19:24:06.792Z,5.20
2023-04-28T19:29:09.538Z,6.30
2023-04-28T19:34:12.589Z,5.90
2023-04-28T19:39:15.356Z,6.70
2023-04-28T19:44:18.232Z,5.90
2023-04-28T19:49:22.871Z,4.90
2023-04-28T19:54:26.399Z,6.00
2023-04-28T19:59:29.220Z,6.00
2023-04-28T20:04:32.446Z,6.50
2023-04-28T20:09:38.981Z,5.60
2023-04-28T20:14:41.741Z,6.20
2023-04-28T20:19:44.578Z,6.30
2023-04-28T20:24:47.572Z,7.40
2023-04-28T20:29:50.973Z,6.60
2023-04-28T20:34:54.386Z,7.40
2023-04-28T20:39:57.838Z,6.70
2023-04-28T20:45:00.792Z,6.80
2023-04-28T20:50:06.630Z,6.60
2023-04-28T20:55:10.606Z,8.30
2023-04-28T21:00:13.561Z,6.40
2023-04-28T21:05:17.752Z,6.00
2023-04-28T21:10:20.663Z,5.70
2023-04-28T21:15:23.558Z,5.40
2023-04-28T21:20:26.690Z,5.70
2023-04-28T21:25:29.585Z,5.40
2023-04-28T21:30:32.344Z,5.40
2023-04-28T21:35:35.183Z,6.00
2023-04-28T21:40:37.897Z,6.30
2023-04-28T21:45:40.683Z,5.70
2023-04-28T21:50:43.627Z,5.50
2023-04-28T21:55:47.525Z,5.40
2023-04-28T22:00:51.369Z,5.10
2023-04-28T22:05:55.351Z,5.70
2023-04-28T22:10:58.282Z,6.40
2023-04-28T22:16:01.986Z,5.30
2023-04-28T22:21:07.286Z,6.50
2023-04-28T22:26:10.140Z,6.40
2023-04-28T22:31:13.569Z,6.90
2023-04-28T22:36:16.699Z,6.50
2023-04-28T22:41:19.441Z,6.10
2023-04-28T22:46:22.269Z,6.20
2023-04-28T22:51:25.120Z,6.00
2023-04-28T22:56:28.186Z,6.30
2023-04-28T23:01:31.990Z,5.30
2023-04-28T23:06:35.186Z,4.80
2023-04-28T23:11:37.961Z,5.30
2023-04-28T23:16:41.185Z,5.20
2023-04-28T23:21:44.627Z,5.40
2023-04-28T23:26:47.364Z,5.60
2023-04-28T23:31:55.057Z,5.70
2023-04-28T23:36:58.605Z,5.50
2023-04-28T23:42:02.551Z,5.20
2023-04-28T23:47:05.292Z,5.40
2023-04-28T23:52:08.114Z,4.60
2023-04-28T23:57:11.175Z,4.80
